Time;durP1;ratioP1;P1;durP2;ratioP2;P2;SDS_P1;SDS_P2;PMS_P1;PMS_P2;Temp;Humidity;BMP_temperature;BMP_pressure;BME280_temperature;BME280_humidity;BME280_pressure;Samples;Min_cycle;Max_cycle;Signal;HPM_P1;HPM_P2
2023/02/06 00:00:14;;;;;;;10.10;6.65;;;;;;;;;;4958971;29;20514;-81
2023/02/06 00:02:41;;;;;;;13.40;7.90;;;;;;;;;;4924092;29;20041;-81
2023/02/06 00:05:07;;;;;;;7.15;6.45;;;;;;;;;;4962592;29;20107;-82
2023/02/06 00:07:33;;;;;;;10.50;8.35;;;;;;;;;;4932511;29;20058;-84
2023/02/06 00:09:59;;;;;;;8.55;7.72;;;;;;;;;;4974926;28;20043;-83
2023/02/06 00:12:25;;;;;;;8.43;6.55;;;;;;;;;;4956671;29;20082;-82
2023/02/06 00:14:51;;;;;;;8.90;8.02;;;;;;;;;;4956613;29;20043;-82
2023/02/06 00:17:17;;;;;;;8.20;7.32;;;;;;;;;;4956882;29;20035;-81
2023/02/06 00:19:43;;;;;;;7.85;6.68;;;;;;;;;;4962950;28;20082;-82
2023/02/06 00:22:09;;;;;;;9.88;7.50;;;;;;;;;;4943378;29;20062;-81
2023/02/06 00:24:35;;;;;;;13.63;10.20;;;;;;;;;;4960415;29;20047;-81
2023/02/06 00:27:01;;;;;;;6.65;5.95;;;;;;;;;;4962681;29;20043;-80
2023/02/06 00:29:27;;;;;;;11.05;7.72;;;;;;;;;;4964187;28;20035;-80
2023/02/06 00:31:53;;;;;;;8.20;7.35;;;;;;;;;;4962902;29;20039;-82
2023/02/06 00:34:19;;;;;;;7.93;6.97;;;;;;;;;;4948158;29;20063;-82
2023/02/06 00:36:45;;;;;;;9.77;7.60;;;;;;;;;;4968476;29;20027;-81
2023/02/06 00:39:11;;;;;;;7.28;5.97;;;;;;;;;;4976747;28;20095;-84
2023/02/06 00:41:37;;;;;;;8.45;6.13;;;;;;;;;;4956010;29;20040;-82
2023/02/06 00:44:03;;;;;;;8.65;7.50;;;;;;;;;;4953802;29;20462;-82
2023/02/06 00:46:31;;;;;;;8.15;6.70;;;;;;;;;;4971720;29;20031;-83
2023/02/06 00:48:58;;;;;;;8.02;7.28;;;;;;;;;;4956139;29;20027;-82
2023/02/06 00:51:25;;;;;;;9.63;7.38;;;;;;;;;;4972498;29;20051;-83
2023/02/06 00:53:50;;;;;;;7.30;6.57;;;;;;;;;;4973026;29;20039;-83
2023/02/06 00:56:16;;;;;;;7.30;6.60;;;;;;;;;;4971030;28;20371;-80
2023/02/06 00:58:44;;;;;;;8.35;7.55;;;;;;;;;;4938719;29;20152;-81
2023/02/06 01:01:10;;;;;;;7.75;6.45;;;;;;;;;;4963532;29;20154;-82
2023/02/06 01:03:38;;;;;;;10.07;8.52;;;;;;;;;;4933656;29;20327;-82
2023/02/06 01:06:04;;;;;;;8.95;6.72;;;;;;;;;;4968569;28;20078;-82
2023/02/06 01:08:30;;;;;;;9.52;7.70;;;;;;;;;;4967364;28;20471;-81
2023/02/06 01:10:58;;;;;;;7.53;6.47;;;;;;;;;;4961806;29;20038;-81
2023/02/06 01:13:25;;;;;;;6.57;5.90;;;;;;;;;;4948451;29;20066;-82
2023/02/06 01:15:51;;;;;;;9.77;8.52;;;;;;;;;;4948830;29;20093;-82
2023/02/06 01:18:17;;;;;;;6.95;6.00;;;;;;;;;;4953674;29;20063;-82
2023/02/06 01:20:43;;;;;;;10.73;7.72;;;;;;;;;;4954069;29;20067;-81
2023/02/06 01:23:09;;;;;;;6.78;5.90;;;;;;;;;;4948162;29;20031;-81
2023/02/06 01:25:35;;;;;;;8.50;7.57;;;;;;;;;;4968343;28;20047;-81
2023/02/06 01:28:01;;;;;;;10.68;8.52;;;;;;;;;;4951883;29;20007;-83
2023/02/06 01:30:29;;;;;;;12.52;9.35;;;;;;;;;;4965084;29;20039;-80
2023/02/06 01:32:55;;;;;;;6.28;5.70;;;;;;;;;;4958834;29;20031;-81
2023/02/06 01:35:21;;;;;;;7.40;6.68;;;;;;;;;;4960291;29;20053;-81
2023/02/06 01:37:47;;;;;;;9.93;7.97;;;;;;;;;;4959406;29;20031;-80
2023/02/06 01:40:14;;;;;;;8.30;6.88;;;;;;;;;;4959674;28;20050;-81
2023/02/06 01:42:40;;;;;;;10.02;7.43;;;;;;;;;;4944160;29;20031;-80
2023/02/06 01:45:16;;;;;;;8.68;6.72;;;;;;;;;;4941460;29;20074;-82
2023/02/06 01:47:42;;;;;;;8.75;5.80;;;;;;;;;;4942674;29;20035;-80
2023/02/06 01:50:08;;;;;;;9.77;6.80;;;;;;;;;;4959413;29;20050;-83
2023/02/06 01:52:34;;;;;;;14.60;7.80;;;;;;;;;;4958661;29;20042;-81
2023/02/06 01:55:02;;;;;;;8.07;7.28;;;;;;;;;;4956567;29;20039;-82
2023/02/06 01:57:28;;;;;;;9.93;7.60;;;;;;;;;;4947465;29;20094;-81
2023/02/06 01:59:56;;;;;;;12.00;6.60;;;;;;;;;;4942896;29;20417;-80
2023/02/06 02:02:22;;;;;;;11.00;8.02;;;;;;;;;;4946815;29;20039;-81
2023/02/06 02:04:48;;;;;;;9.50;8.02;;;;;;;;;;4930752;29;20047;-82
2023/02/06 02:07:16;;;;;;;11.63;8.73;;;;;;;;;;4969251;29;20059;-82
2023/02/06 02:09:42;;;;;;;5.68;5.28;;;;;;;;;;4966762;29;20046;-83
2023/02/06 02:12:08;;;;;;;9.75;6.82;;;;;;;;;;4967490;29;20063;-81
2023/02/06 02:14:35;;;;;;;9.90;6.15;;;;;;;;;;4952414;29;20142;-80
2023/02/06 02:17:39;;;;;;;9.98;6.65;;;;;;;;;;4951606;29;20051;-81
2023/02/06 02:20:24;;;;;;;7.47;6.80;;;;;;;;;;4959424;28;20094;-81
2023/02/06 02:22:51;;;;;;;8.45;6.55;;;;;;;;;;4942915;29;20070;-80
2023/02/06 02:25:17;;;;;;;8.48;6.72;;;;;;;;;;4941226;29;20051;-81
2023/02/06 02:27:51;;;;;;;9.23;7.18;;;;;;;;;;4958427;29;20042;-81
2023/02/06 02:30:20;;;;;;;9.20;6.82;;;;;;;;;;4948812;29;20071;-82
2023/02/06 02:32:54;;;;;;;7.72;6.90;;;;;;;;;;4968682;29;20035;-82
2023/02/06 02:35:23;;;;;;;6.75;6.07;;;;;;;;;;4967175;29;20053;-81
2023/02/06 02:38:05;;;;;;;10.45;9.18;;;;;;;;;;4937289;29;20034;-82
2023/02/06 02:40:31;;;;;;;;;;;;;;;;;;4954282;29;20047;-82
2023/02/06 02:43:04;;;;;;;9.63;8.73;;;;;;;;;;4971224;28;20174;-82
2023/02/06 02:45:39;;;;;;;6.47;5.95;;;;;;;;;;4952580;29;20077;-81
2023/02/06 02:48:07;;;;;;;7.78;7.07;;;;;;;;;;4956407;29;20039;-83
2023/02/06 02:50:33;;;;;;;9.50;8.55;;;;;;;;;;4957241;29;20046;-83
2023/02/06 02:52:59;;;;;;;8.05;7.32;;;;;;;;;;4974095;29;20094;-81
2023/02/06 02:55:26;;;;;;;11.02;6.60;;;;;;;;;;4953761;29;20049;-82
2023/02/06 02:58:00;;;;;;;9.48;8.52;;;;;;;;;;4949807;29;20090;-81
2023/02/06 03:00:26;;;;;;;7.80;6.95;;;;;;;;;;4961411;29;20093;-82
2023/02/06 03:02:53;;;;;;;9.73;8.32;;;;;;;;;;4956090;28;20122;-82
2023/02/06 03:05:19;;;;;;;7.50;6.80;;;;;;;;;;4934313;29;20047;-82
2023/02/06 03:07:51;;;;;;;5.03;4.60;;;;;;;;;;4949453;29;20039;-81
2023/02/06 03:10:32;;;;;;;8.45;7.28;;;;;;;;;;4951248;29;20079;-81
2023/02/06 03:12:59;;;;;;;6.68;6.07;;;;;;;;;;4943700;29;20062;-80
2023/02/06 03:15:31;;;;;;;9.05;6.90;;;;;;;;;;4961541;29;20039;-82
2023/02/06 03:18:01;;;;;;;5.07;4.68;;;;;;;;;;4926976;29;20071;-81
2023/02/06 03:20:27;;;;;;;11.10;8.25;;;;;;;;;;4944392;29;20039;-82
2023/02/06 03:22:53;;;;;;;11.02;7.95;;;;;;;;;;4954531;28;20024;-83
2023/02/06 03:25:22;;;;;;;7.63;5.63;;;;;;;;;;4974977;29;20064;-83
2023/02/06 03:27:48;;;;;;;7.68;7.00;;;;;;;;;;4951439;29;20035;-77
2023/02/06 03:30:15;;;;;;;6.53;5.93;;;;;;;;;;4933593;29;20039;-77
2023/02/06 03:32:41;;;;;;;8.15;6.60;;;;;;;;;;4934515;29;20035;-78
2023/02/06 03:35:20;;;;;;;8.10;5.32;;;;;;;;;;4950711;29;20031;-77
2023/02/06 03:37:47;;;;;;;7.32;6.57;;;;;;;;;;4918932;29;20525;-77
2023/02/06 03:40:13;;;;;;;6.93;6.32;;;;;;;;;;4932723;29;20145;-77
2023/02/06 03:42:40;;;;;;;5.82;5.32;;;;;;;;;;4917545;29;20067;-78
2023/02/06 03:45:11;;;;;;;7.28;6.55;;;;;;;;;;4902996;29;20050;-77
2023/02/06 03:47:37;;;;;;;;;;;;;;;;;;4917836;29;20054;-75
2023/02/06 03:50:04;;;;;;;5.95;5.45;;;;;;;;;;4952123;29;19914;-77
2023/02/06 03:52:31;;;;;;;5.35;4.85;;;;;;;;;;4934877;29;20050;-78
2023/02/06 03:54:58;;;;;;;6.82;6.10;;;;;;;;;;4919170;29;20035;-77
2023/02/06 03:57:25;;;;;;;8.10;7.40;;;;;;;;;;4916000;29;20062;-77
2023/02/06 03:59:51;;;;;;;6.65;6.05;;;;;;;;;;4915962;29;20577;-77
2023/02/06 04:02:17;;;;;;;4.95;4.47;;;;;;;;;;4915432;29;20406;-79
2023/02/06 04:04:43;;;;;;;7.20;6.50;;;;;;;;;;4934589;29;20047;-80
2023/02/06 04:07:11;;;;;;;6.90;6.22;;;;;;;;;;4931331;29;20051;-80
2023/02/06 04:09:38;;;;;;;6.57;5.93;;;;;;;;;;4916392;29;20058;-79
2023/02/06 04:12:04;;;;;;;5.28;4.88;;;;;;;;;;4916138;29;20035;-80
2023/02/06 04:14:30;;;;;;;6.88;6.28;;;;;;;;;;4932438;29;20063;-77
2023/02/06 04:16:56;;;;;;;5.82;5.32;;;;;;;;;;4915355;29;20392;-77
2023/02/06 04:19:22;;;;;;;7.03;6.43;;;;;;;;;;4933114;29;20042;-78
2023/02/06 04:21:48;;;;;;;5.88;5.28;;;;;;;;;;4918341;29;20410;-77
2023/02/06 04:24:14;;;;;;;7.47;6.82;;;;;;;;;;4904963;29;20122;-76
2023/02/06 04:26:40;;;;;;;6.82;5.35;;;;;;;;;;4950808;29;20110;-77
2023/02/06 04:29:06;;;;;;;6.97;6.38;;;;;;;;;;4918325;29;20039;-77
2023/02/06 04:31:32;;;;;;;10.15;9.15;;;;;;;;;;4951420;29;20556;-78
2023/02/06 04:33:58;;;;;;;5.45;4.95;;;;;;;;;;4914632;29;20490;-78
2023/02/06 04:36:24;;;;;;;7.00;6.18;;;;;;;;;;4932077;29;20040;-79
2023/02/06 04:38:50;;;;;;;8.55;7.75;;;;;;;;;;4930773;29;20048;-76
2023/02/06 04:41:16;;;;;;;8.07;7.10;;;;;;;;;;4918791;29;20043;-77
2023/02/06 04:43:42;;;;;;;8.50;7.55;;;;;;;;;;4910850;29;20024;-82
2023/02/06 04:46:08;;;;;;;5.55;5.05;;;;;;;;;;4946882;29;20058;-81
2023/02/06 04:48:35;;;;;;;6.47;5.90;;;;;;;;;;4963406;28;20039;-82
2023/02/06 04:51:01;;;;;;;5.93;5.43;;;;;;;;;;4930900;29;20121;-82
2023/02/06 04:53:27;;;;;;;6.32;5.75;;;;;;;;;;4947510;29;20122;-84
2023/02/06 04:55:57;;;;;;;6.15;5.65;;;;;;;;;;4971096;29;20046;-83
2023/02/06 04:58:23;;;;;;;7.18;6.13;;;;;;;;;;4950489;28;20035;-83
2023/02/06 05:00:49;;;;;;;6.60;6.07;;;;;;;;;;4970625;28;20062;-82
2023/02/06 05:03:15;;;;;;;6.70;5.57;;;;;;;;;;4975967;28;20019;-81
2023/02/06 05:05:41;;;;;;;6.03;5.43;;;;;;;;;;4977558;28;20062;-82
2023/02/06 05:08:07;;;;;;;7.45;6.65;;;;;;;;;;4974840;28;20054;-83
2023/02/06 05:10:33;;;;;;;7.78;6.47;;;;;;;;;;4974357;28;20045;-79
2023/02/06 05:12:59;;;;;;;6.75;5.90;;;;;;;;;;4986179;28;20055;-82
2023/02/06 05:15:25;;;;;;;7.93;7.18;;;;;;;;;;4965924;28;20035;-82
2023/02/06 05:17:51;;;;;;;6.45;5.85;;;;;;;;;;4968369;28;20042;-81
2023/02/06 05:20:16;;;;;;;6.55;6.00;;;;;;;;;;4965639;28;20047;-81
2023/02/06 05:22:42;;;;;;;8.20;7.25;;;;;;;;;;4948259;29;20031;-80
2023/02/06 05:25:08;;;;;;;6.50;5.63;;;;;;;;;;4965363;29;20113;-80
2023/02/06 05:27:34;;;;;;;6.47;5.85;;;;;;;;;;4963823;28;20052;-80
2023/02/06 05:30:00;;;;;;;8.82;8.02;;;;;;;;;;4943527;29;20077;-82
2023/02/06 05:32:27;;;;;;;7.97;7.28;;;;;;;;;;4938153;29;20031;-80
2023/02/06 05:34:53;;;;;;;7.60;6.55;;;;;;;;;;4942213;29;20062;-81
2023/02/06 05:37:19;;;;;;;8.48;6.55;;;;;;;;;;4943894;29;20031;-81
2023/02/06 05:39:45;;;;;;;10.68;6.03;;;;;;;;;;4938266;29;20046;-81
2023/02/06 05:42:11;;;;;;;6.43;5.78;;;;;;;;;;4956837;28;20039;-81
2023/02/06 05:44:37;;;;;;;6.15;5.47;;;;;;;;;;4975343;28;20098;-81
2023/02/06 05:47:03;;;;;;;7.45;6.75;;;;;;;;;;4976687;28;20560;-83
2023/02/06 05:49:29;;;;;;;7.57;6.72;;;;;;;;;;4978177;28;20563;-84
2023/02/06 05:51:55;;;;;;;6.78;6.18;;;;;;;;;;4981468;28;20042;-81
2023/02/06 05:54:21;;;;;;;6.82;6.10;;;;;;;;;;4979360;28;20043;-81
2023/02/06 05:56:47;;;;;;;8.18;6.57;;;;;;;;;;4978126;28;20046;-81
2023/02/06 05:59:13;;;;;;;7.07;6.07;;;;;;;;;;4968085;28;20038;-83
2023/02/06 06:01:39;;;;;;;6.57;5.93;;;;;;;;;;4963078;28;20043;-81
2023/02/06 06:04:06;;;;;;;6.63;6.03;;;;;;;;;;4961450;29;20031;-81
2023/02/06 06:06:32;;;;;;;4.90;4.50;;;;;;;;;;4964630;29;20043;-84
2023/02/06 06:48:04;;;;;;;8.90;8.00;;;;;;;;;;4949637;28;20047;-77
2023/02/06 06:50:30;;;;;;;8.40;7.53;;;;;;;;;;4951319;28;20040;-76
2023/02/06 06:52:56;;;;;;;7.65;6.95;;;;;;;;;;4951836;28;20167;-79
2023/02/06 06:55:23;;;;;;;7.22;6.55;;;;;;;;;;4957419;28;20129;-78
2023/02/06 06:57:48;;;;;;;8.70;7.70;;;;;;;;;;4934498;29;20035;-77
2023/02/06 07:00:15;;;;;;;3.47;3.33;;;;;;;;;;4950738;28;20411;-79
2023/02/06 07:02:41;;;;;;;7.68;6.97;;;;;;;;;;4934034;29;20039;-79
2023/02/06 07:05:07;;;;;;;5.88;5.40;;;;;;;;;;4952429;28;20059;-81
2023/02/06 07:07:33;;;;;;;8.52;7.82;;;;;;;;;;4952488;28;20035;-78
2023/02/06 07:09:59;;;;;;;4.65;4.35;;;;;;;;;;4940140;28;20039;-80
2023/02/06 07:12:25;;;;;;;8.20;6.55;;;;;;;;;;4949089;29;20501;-80
2023/02/06 07:14:51;;;;;;;7.20;6.53;;;;;;;;;;4953535;28;20030;-81
2023/02/06 07:17:17;;;;;;;8.10;7.20;;;;;;;;;;4957817;28;20090;-81
2023/02/06 07:19:46;;;;;;;8.73;7.82;;;;;;;;;;4953372;28;20039;-82
2023/02/06 07:22:16;;;;;;;9.15;7.68;;;;;;;;;;4940886;29;20035;-80
2023/02/06 07:24:42;;;;;;;7.28;6.53;;;;;;;;;;4960412;28;20035;-81
2023/02/06 07:27:08;;;;;;;6.82;6.13;;;;;;;;;;4970033;28;20039;-82
2023/02/06 07:29:34;;;;;;;5.43;4.45;;;;;;;;;;4971192;28;20070;-82
2023/02/06 07:32:00;;;;;;;8.60;6.75;;;;;;;;;;4984397;28;20030;-83
2023/02/06 07:34:26;;;;;;;7.75;7.05;;;;;;;;;;4980532;28;20073;-86
2023/02/06 07:36:52;;;;;;;10.82;8.40;;;;;;;;;;4996438;28;20018;-87
2023/02/06 07:39:18;;;;;;;10.88;9.10;;;;;;;;;;4992658;28;20027;-86
2023/02/06 07:41:45;;;;;;;10.43;8.98;;;;;;;;;;4945167;29;20070;-85
2023/02/06 07:44:12;;;;;;;10.32;9.27;;;;;;;;;;4974994;28;20106;-83
2023/02/06 07:49:19;;;;;;;11.93;10.05;;;;;;;;;;5078084;23;20055;-84
2023/02/06 07:51:45;;;;;;;12.45;9.63;;;;;;;;;;5140794;23;20002;-84
2023/02/06 07:54:15;;;;;;;7.90;7.18;;;;;;;;;;5104775;23;20048;-84
2023/02/06 07:56:41;;;;;;;8.10;6.82;;;;;;;;;;5072187;23;20229;-84
2023/02/06 07:59:08;;;;;;;10.45;8.60;;;;;;;;;;4979741;28;20032;-84
2023/02/06 08:01:34;;;;;;;6.85;6.20;;;;;;;;;;4988567;28;20035;-87
2023/02/06 08:04:00;;;;;;;8.38;7.50;;;;;;;;;;5097718;23;20043;-82
2023/02/06 08:06:26;;;;;;;7.80;6.53;;;;;;;;;;4975813;28;20055;-81
2023/02/06 08:08:55;;;;;;;10.48;8.65;;;;;;;;;;4962166;28;20063;-81
2023/02/06 08:11:23;;;;;;;6.05;5.43;;;;;;;;;;4943163;29;20548;-83
2023/02/06 08:13:49;;;;;;;7.85;7.00;;;;;;;;;;4966106;28;20038;-82
2023/02/06 08:16:16;;;;;;;7.82;7.13;;;;;;;;;;4955568;29;20039;-80
2023/02/06 08:18:42;;;;;;;7.15;5.82;;;;;;;;;;4935878;29;20038;-81
2023/02/06 08:21:13;;;;;;;6.80;6.00;;;;;;;;;;4947439;28;20042;-81
2023/02/06 08:23:39;;;;;;;7.53;6.78;;;;;;;;;;4950090;28;20040;-81
2023/02/06 08:26:09;;;;;;;5.22;4.72;;;;;;;;;;4952644;28;20039;-80
2023/02/06 08:28:35;;;;;;;10.85;6.80;;;;;;;;;;4936458;29;20616;-81
2023/02/06 08:31:07;;;;;;;7.47;5.78;;;;;;;;;;4970405;28;20117;-81
2023/02/06 08:33:33;;;;;;;5.97;5.22;;;;;;;;;;4963157;28;20054;-82
2023/02/06 08:36:01;;;;;;;6.60;5.97;;;;;;;;;;4959063;28;20038;-82
2023/02/06 08:38:27;;;;;;;6.57;5.97;;;;;;;;;;4954610;28;20042;-83
2023/02/06 08:40:53;;;;;;;6.78;6.03;;;;;;;;;;4959611;28;20039;-82
2023/02/06 08:43:19;;;;;;;7.57;6.90;;;;;;;;;;4939216;29;20053;-80
2023/02/06 08:45:49;;;;;;;7.60;6.65;;;;;;;;;;4961813;28;20502;-82
2023/02/06 08:48:15;;;;;;;8.05;7.13;;;;;;;;;;4970685;28;20102;-83
2023/02/06 08:50:41;;;;;;;9.93;8.00;;;;;;;;;;4923986;28;20030;-82
2023/02/06 08:53:07;;;;;;;7.30;6.60;;;;;;;;;;4944619;28;20046;-82
2023/02/06 08:55:33;;;;;;;10.10;8.30;;;;;;;;;;4950681;28;20122;-80
2023/02/06 08:57:59;;;;;;;7.63;6.90;;;;;;;;;;4933937;29;20031;-80
2023/02/06 09:00:26;;;;;;;8.20;7.40;;;;;;;;;;4964180;28;20043;-82
2023/02/06 09:02:52;;;;;;;9.40;6.45;;;;;;;;;;4970017;28;20039;-82
2023/02/06 09:05:19;;;;;;;6.50;5.88;;;;;;;;;;4976879;28;20046;-82
2023/02/06 09:07:45;;;;;;;8.40;6.20;;;;;;;;;;4945978;29;20057;-81
2023/02/06 09:10:11;;;;;;;7.25;5.57;;;;;;;;;;4971690;28;20019;-85
2023/02/06 09:12:38;;;;;;;7.70;5.82;;;;;;;;;;4973568;28;20042;-83
2023/02/06 09:15:04;;;;;;;6.95;6.15;;;;;;;;;;4972481;28;20027;-84
2023/02/06 09:17:30;;;;;;;7.38;6.68;;;;;;;;;;4956079;29;20066;-85
2023/02/06 09:19:57;;;;;;;7.50;6.80;;;;;;;;;;4965053;28;20023;-83
2023/02/06 09:22:23;;;;;;;6.80;6.22;;;;;;;;;;5018311;23;20054;-85
2023/02/06 09:24:49;;;;;;;7.30;6.20;;;;;;;;;;4994944;28;20046;-84
2023/02/06 09:27:15;;;;;;;6.30;5.70;;;;;;;;;;4980661;28;20107;-85
2023/02/06 09:29:41;;;;;;;7.85;6.30;;;;;;;;;;4974753;28;20070;-81
2023/02/06 09:32:07;;;;;;;7.32;6.68;;;;;;;;;;4972875;28;20103;-85
2023/02/06 09:34:34;;;;;;;7.35;6.65;;;;;;;;;;4956634;29;20454;-84
2023/02/06 09:37:03;;;;;;;7.20;6.50;;;;;;;;;;4951260;29;20222;-83
2023/02/06 09:39:29;;;;;;;6.88;6.18;;;;;;;;;;4972060;28;20026;-82
2023/02/06 09:41:58;;;;;;;12.70;7.25;;;;;;;;;;4963178;28;20046;-84
2023/02/06 09:44:34;;;;;;;7.05;6.38;;;;;;;;;;4943711;29;20039;-82
2023/02/06 09:47:03;;;;;;;6.75;4.47;;;;;;;;;;4978008;28;20133;-83
2023/02/06 09:49:36;;;;;;;8.25;6.32;;;;;;;;;;4983305;28;20023;-83
2023/02/06 09:52:02;;;;;;;6.15;5.65;;;;;;;;;;4968946;29;20067;-81
2023/02/06 09:57:30;;;;;;;7.40;6.70;;;;;;;;;;4934943;29;20052;-81
2023/02/06 10:00:08;;;;;;;7.75;7.15;;;;;;;;;;4939731;29;20068;-84
2023/02/06 10:02:57;;;;;;;9.05;8.15;;;;;;;;;;4919243;29;20499;-83
2023/02/06 10:05:25;;;;;;;7.43;6.78;;;;;;;;;;4936497;29;20052;-84
2023/02/06 10:07:56;;;;;;;13.98;8.00;;;;;;;;;;4929430;29;20028;-83
2023/02/06 10:10:35;;;;;;;4.97;4.45;;;;;;;;;;4953629;29;20123;-82
2023/02/06 10:13:04;;;;;;;7.63;6.45;;;;;;;;;;4919095;29;20007;-85
2023/02/06 10:15:31;;;;;;;8.27;7.47;;;;;;;;;;4921932;29;20063;-85
2023/02/06 10:18:00;;;;;;;8.02;7.10;;;;;;;;;;4938889;29;20046;-80
2023/02/06 10:20:31;;;;;;;7.95;7.28;;;;;;;;;;4918487;29;20016;-84
2023/02/06 10:23:04;;;;;;;9.02;7.88;;;;;;;;;;5467554;23;20132;-80
2023/02/06 10:25:31;;;;;;;11.23;7.32;;;;;;;;;;5337777;23;20046;-85
2023/02/06 10:28:00;;;;;;;5.82;5.25;;;;;;;;;;5443241;23;20109;-80
2023/02/06 10:30:47;;;;;;;6.63;6.03;;;;;;;;;;5138663;23;20095;-79
2023/02/06 10:33:22;;;;;;;3.75;3.45;;;;;;;;;;4966504;28;20019;-82
2023/02/06 10:36:07;;;;;;;8.50;7.60;;;;;;;;;;5112093;23;20059;-83
2023/02/06 10:38:43;;;;;;;8.60;7.57;;;;;;;;;;4953252;28;20058;-83
2023/02/06 10:41:35;;;;;;;7.57;6.88;;;;;;;;;;4982860;28;20035;-82
2023/02/06 10:44:04;;;;;;;8.75;7.85;;;;;;;;;;4978567;28;20043;-83
2023/02/06 10:46:41;;;;;;;7.78;5.70;;;;;;;;;;4952031;28;20047;-83
2023/02/06 10:49:26;;;;;;;9.73;7.18;;;;;;;;;;4953673;28;20037;-85
2023/02/06 10:51:54;;;;;;;9.13;7.53;;;;;;;;;;4937314;28;20134;-82
2023/02/06 10:54:27;;;;;;;7.10;6.50;;;;;;;;;;4968566;28;20035;-84
2023/02/06 10:56:54;;;;;;;9.93;8.77;;;;;;;;;;4965297;28;20039;-82
2023/02/06 10:59:26;;;;;;;11.60;8.90;;;;;;;;;;4969077;28;20037;-81
2023/02/06 11:02:11;;;;;;;10.02;9.05;;;;;;;;;;4971278;29;20043;-82
2023/02/06 11:04:38;;;;;;;12.10;10.80;;;;;;;;;;4946267;29;20102;-80
2023/02/06 11:07:10;;;;;;;4.45;4.13;;;;;;;;;;4932058;29;20047;-83
2023/02/06 11:09:36;;;;;;;7.22;6.63;;;;;;;;;;4981224;28;20040;-81
2023/02/06 11:12:02;;;;;;;11.38;7.70;;;;;;;;;;4957357;29;20038;-84
2023/02/06 11:14:33;;;;;;;9.10;8.20;;;;;;;;;;4969289;28;20032;-83
2023/02/06 11:16:59;;;;;;;7.53;6.70;;;;;;;;;;4951795;29;20036;-82
2023/02/06 11:19:29;;;;;;;7.50;6.63;;;;;;;;;;4963637;28;20026;-83
2023/02/06 11:21:56;;;;;;;9.75;8.80;;;;;;;;;;4969722;29;20045;-80
2023/02/06 11:24:22;;;;;;;11.80;8.68;;;;;;;;;;4937768;28;20046;-81
2023/02/06 11:26:50;;;;;;;9.93;7.72;;;;;;;;;;4939806;29;20070;-80
2023/02/06 11:29:20;;;;;;;5.55;5.13;;;;;;;;;;4956054;28;20066;-81
2023/02/06 11:31:48;;;;;;;6.65;6.07;;;;;;;;;;4955465;28;20085;-82
2023/02/06 11:34:31;;;;;;;9.35;8.50;;;;;;;;;;4960427;28;20436;-81
2023/02/06 11:36:58;;;;;;;5.28;4.80;;;;;;;;;;4947550;29;20062;-83
2023/02/06 11:39:25;;;;;;;12.80;9.20;;;;;;;;;;4955123;29;20311;-81
2023/02/06 11:42:11;;;;;;;10.65;9.55;;;;;;;;;;4972873;28;20103;-81
2023/02/06 11:44:38;;;;;;;12.00;10.63;;;;;;;;;;4955631;28;20035;-77
2023/02/06 11:47:19;;;;;;;8.57;7.80;;;;;;;;;;4969008;28;20047;-80
2023/02/06 11:49:45;;;;;;;13.80;12.43;;;;;;;;;;4983926;28;20039;-83
2023/02/06 11:52:30;;;;;;;9.77;8.77;;;;;;;;;;4972137;28;20039;-79
2023/02/06 11:55:00;;;;;;;7.95;7.25;;;;;;;;;;4968468;28;20042;-84
2023/02/06 11:57:27;;;;;;;10.82;9.35;;;;;;;;;;4956530;29;20103;-84
2023/02/06 11:59:54;;;;;;;9.23;8.32;;;;;;;;;;4958712;29;20039;-85
2023/02/06 12:02:31;;;;;;;11.18;9.27;;;;;;;;;;4974257;28;20054;-85
2023/02/06 12:05:03;;;;;;;9.70;8.75;;;;;;;;;;4957149;29;20043;-84
2023/02/06 12:07:36;;;;;;;5.30;4.82;;;;;;;;;;4970875;29;20035;-84
2023/02/06 12:10:05;;;;;;;8.48;7.68;;;;;;;;;;4941319;29;20091;-81
2023/02/06 12:12:33;;;;;;;7.35;6.75;;;;;;;;;;4941413;29;20045;-81
2023/02/06 12:14:59;;;;;;;9.73;7.65;;;;;;;;;;4955476;28;20039;-81
2023/02/06 12:17:35;;;;;;;9.70;8.48;;;;;;;;;;4936905;29;20041;-81
2023/02/06 12:20:01;;;;;;;7.30;6.30;;;;;;;;;;4954039;28;20047;-80
2023/02/06 12:22:29;;;;;;;10.98;8.48;;;;;;;;;;4951360;28;20485;-79
2023/02/06 12:24:55;;;;;;;14.07;9.13;;;;;;;;;;4936674;28;20042;-81
2023/02/06 12:27:24;;;;;;;11.43;8.43;;;;;;;;;;4952957;28;20421;-84
2023/02/06 12:29:58;;;;;;;11.77;8.35;;;;;;;;;;4937055;29;20067;-82
2023/02/06 12:32:28;;;;;;;11.60;7.65;;;;;;;;;;4958955;28;20139;-83
2023/02/06 12:35:00;;;;;;;13.45;9.63;;;;;;;;;;4939180;29;20056;-83
2023/02/06 12:37:30;;;;;;;8.48;5.82;;;;;;;;;;4972947;28;20026;-83
2023/02/06 12:39:59;;;;;;;6.70;6.13;;;;;;;;;;4957840;29;20039;-81
2023/02/06 12:42:49;;;;;;;9.05;6.63;;;;;;;;;;4967355;28;20924;-83
2023/02/06 12:45:15;;;;;;;;;;;;;;;;;;4944143;29;20130;-78
2023/02/06 12:47:55;;;;;;;11.52;10.38;;;;;;;;;;4975172;28;19905;-83
2023/02/06 12:50:26;;;;;;;12.85;8.70;;;;;;;;;;4974657;28;20042;-82
2023/02/06 12:52:58;;;;;;;9.02;6.75;;;;;;;;;;4978792;28;20035;-85
2023/02/06 12:58:23;;;;;;;9.40;7.55;;;;;;;;;;4956491;28;20042;-84
2023/02/06 13:01:02;;;;;;;8.73;7.57;;;;;;;;;;4950000;29;20038;-87
2023/02/06 13:03:32;;;;;;;10.50;7.68;;;;;;;;;;5053780;23;20055;-86
2023/02/06 13:06:01;;;;;;;11.93;8.15;;;;;;;;;;4967172;28;20058;-83
2023/02/06 13:11:24;;;;;;;7.35;6.70;;;;;;;;;;5325651;23;19910;-85
2023/02/06 13:13:57;;;;;;;10.02;8.23;;;;;;;;;;5424139;23;20062;-84
2023/02/06 13:16:43;;;;;;;10.65;9.38;;;;;;;;;;5009933;28;20049;-85
2023/02/06 13:19:47;;;;;;;8.73;7.88;;;;;;;;;;4992619;28;20049;-88
2023/02/06 13:22:18;;;;;;;8.85;8.02;;;;;;;;;;4966760;28;20050;-85
2023/02/06 13:24:44;;;;;;;11.98;9.30;;;;;;;;;;4938353;29;20187;-82
2023/02/06 13:27:31;;;;;;;6.88;5.55;;;;;;;;;;4970610;28;20111;-84
2023/02/06 13:29:58;;;;;;;9.68;8.00;;;;;;;;;;4955706;28;20050;-80
2023/02/06 13:32:37;;;;;;;10.60;8.65;;;;;;;;;;4954192;28;20405;-83
2023/02/06 13:35:05;;;;;;;9.20;7.65;;;;;;;;;;4962150;28;20035;-82
2023/02/06 13:37:31;;;;;;;7.60;6.80;;;;;;;;;;4964450;28;20126;-81
2023/02/06 13:40:10;;;;;;;12.00;9.90;;;;;;;;;;4944413;29;20100;-84
2023/02/06 13:42:39;;;;;;;11.07;9.85;;;;;;;;;;4978787;28;20022;-86
2023/02/06 13:45:05;;;;;;;14.95;7.90;;;;;;;;;;4996561;28;20058;-83
2023/02/06 13:47:50;;;;;;;11.70;10.43;;;;;;;;;;4975274;28;20035;-85
2023/02/06 13:50:16;;;;;;;14.18;10.38;;;;;;;;;;4970913;28;20103;-84
2023/02/06 13:52:48;;;;;;;10.88;9.40;;;;;;;;;;4961644;28;20034;-83
2023/02/06 13:55:15;;;;;;;17.40;12.30;;;;;;;;;;4949710;28;20039;-82
2023/02/06 13:57:57;;;;;;;13.60;12.05;;;;;;;;;;4953867;28;20449;-80
2023/02/06 14:00:24;;;;;;;17.25;11.93;;;;;;;;;;4947799;28;20054;-79
2023/02/06 14:02:50;;;;;;;14.90;10.45;;;;;;;;;;4929077;29;20128;-83
2023/02/06 14:05:42;;;;;;;13.93;12.50;;;;;;;;;;4944196;28;20053;-84
2023/02/06 14:08:59;;;;;;;19.38;10.43;;;;;;;;;;4982068;28;20035;-84
2023/02/06 14:12:34;;;;;;;13.50;9.68;;;;;;;;;;4968404;28;20077;-84
2023/02/06 14:34:48;;;;;;;17.15;13.55;;;;;;;;;;4959925;28;20042;-81
2023/02/06 14:37:31;;;;;;;8.20;7.45;;;;;;;;;;4954301;28;20045;-77
2023/02/06 14:57:00;;;;;;;26.10;15.95;;;;;;;;;;4951924;28;20457;-82
2023/02/06 15:00:15;;;;;;;;;;;;;;;;;;4959314;28;20175;-80
2023/02/06 15:03:32;;;;;;;21.15;14.23;;;;;;;;;;4953409;28;20348;-80
2023/02/06 15:06:51;;;;;;;31.17;18.52;;;;;;;;;;4954325;28;20065;-82
2023/02/06 15:09:21;;;;;;;20.38;14.82;;;;;;;;;;4919916;29;20032;-81
2023/02/06 15:11:50;;;;;;;19.17;15.68;;;;;;;;;;4953174;28;20067;-82
2023/02/06 15:14:21;;;;;;;26.67;19.38;;;;;;;;;;4965553;28;20379;-82
2023/02/06 15:16:48;;;;;;;24.10;14.05;;;;;;;;;;4977078;28;20035;-81
2023/02/06 15:19:22;;;;;;;23.27;15.50;;;;;;;;;;4960540;28;20062;-81
2023/02/06 15:21:48;;;;;;;25.23;15.10;;;;;;;;;;4959371;28;20409;-83
2023/02/06 15:24:21;;;;;;;23.00;14.85;;;;;;;;;;4980696;28;20043;-82
2023/02/06 15:26:53;;;;;;;24.77;16.05;;;;;;;;;;4972153;28;20054;-80
2023/02/06 15:29:25;;;;;;;28.60;21.65;;;;;;;;;;4972409;28;20038;-83
2023/02/06 15:32:00;;;;;;;26.33;18.30;;;;;;;;;;4961766;28;20122;-78
2023/02/06 15:34:26;;;;;;;15.23;11.10;;;;;;;;;;4970655;28;20038;-79
2023/02/06 15:36:53;;;;;;;30.45;17.40;;;;;;;;;;4953751;28;20386;-79
2023/02/06 15:39:19;;;;;;;28.83;19.85;;;;;;;;;;4949769;28;20031;-76
2023/02/06 15:41:47;;;;;;;26.65;18.02;;;;;;;;;;4961173;28;20038;-78
2023/02/06 15:44:21;;;;;;;24.73;15.27;;;;;;;;;;4934162;28;20449;-77
2023/02/06 15:46:47;;;;;;;18.85;13.07;;;;;;;;;;4967860;28;20050;-79
2023/02/06 15:49:16;;;;;;;28.67;20.00;;;;;;;;;;4952766;28;20108;-78
2023/02/06 15:51:49;;;;;;;19.88;14.02;;;;;;;;;;4950496;28;20034;-76
2023/02/06 15:54:19;;;;;;;21.27;15.68;;;;;;;;;;4968052;28;20457;-77
2023/02/06 15:56:55;;;;;;;12.57;10.27;;;;;;;;;;4969971;28;20039;-78
2023/02/06 15:59:22;;;;;;;23.95;17.13;;;;;;;;;;4959671;28;20049;-79
2023/02/06 16:01:49;;;;;;;23.33;16.13;;;;;;;;;;4970440;28;20385;-79
2023/02/06 16:04:25;;;;;;;19.45;14.43;;;;;;;;;;4970528;28;20049;-82
2023/02/06 16:07:06;;;;;;;22.83;14.52;;;;;;;;;;4970428;28;20043;-77
2023/02/06 16:09:35;;;;;;;27.55;17.25;;;;;;;;;;4960312;28;20461;-79
2023/02/06 16:12:01;;;;;;;19.83;14.98;;;;;;;;;;4959371;28;20117;-81
2023/02/06 16:14:36;;;;;;;24.33;15.15;;;;;;;;;;4968023;28;20039;-79
2023/02/06 16:17:05;;;;;;;21.45;16.33;;;;;;;;;;4951878;28;20162;-77
2023/02/06 16:19:41;;;;;;;10.52;8.57;;;;;;;;;;4972401;28;20039;-75